createdAt,value
2022-08-31T00:00:02.142Z,84.43
2022-08-31T00:01:02.147Z,84.73
2022-08-31T00:02:02.300Z,84.63
2022-08-31T00:03:02.116Z,84.63
2022-08-31T00:04:02.099Z,84.53
2022-08-31T00:05:02.221Z,84.73
2022-08-31T00:06:02.074Z,84.33
2022-08-31T00:07:02.042Z,84.03
2022-08-31T00:08:02.042Z,84.33
2022-08-31T00:09:02.065Z,84.33
2022-08-31T00:10:02.018Z,84.63
2022-08-31T00:11:02.014Z,84.43
2022-08-31T00:12:01.994Z,84.73
2022-08-31T00:13:02.504Z,84.83
2022-08-31T00:14:02.006Z,84.87
2022-08-31T00:15:01.958Z,85.08
2022-08-31T00:16:01.998Z,85.08
2022-08-31T00:17:01.935Z,85.17
2022-08-31T00:18:01.935Z,84.97
2022-08-31T00:19:01.947Z,85.17
2022-08-31T00:20:01.934Z,85.08
2022-08-31T00:21:01.918Z,85.08
2022-08-31T00:22:01.886Z,85.17
2022-08-31T00:23:01.899Z,85.48
2022-08-31T00:24:01.886Z,85.58
2022-08-31T00:25:01.852Z,85.78
2022-08-31T00:26:01.854Z,85.17
2022-08-31T00:27:01.906Z,85.28
2022-08-31T00:28:01.826Z,85.52
2022-08-31T00:29:01.808Z,85.52
2022-08-31T00:30:01.798Z,85.62
2022-08-31T00:31:01.806Z,85.62
2022-08-31T00:32:01.827Z,85.72
2022-08-31T00:33:01.760Z,85.72
2022-08-31T00:34:02.486Z,85.72
2022-08-31T00:35:01.746Z,86.13
2022-08-31T00:36:01.738Z,86.02
2022-08-31T00:37:01.710Z,85.82
2022-08-31T00:38:01.714Z,85.93
2022-08-31T00:39:01.705Z,85.93
2022-08-31T00:40:01.788Z,86.13
2022-08-31T00:41:01.670Z,86.16
2022-08-31T00:42:01.655Z,85.86
2022-08-31T00:43:01.658Z,86.16
2022-08-31T00:44:01.650Z,86.37
2022-08-31T00:45:01.630Z,86.16
2022-08-31T00:46:01.685Z,86.57
2022-08-31T00:47:01.603Z,86.77
2022-08-31T00:48:01.590Z,86.67
2022-08-31T00:49:01.583Z,86.37
2022-08-31T00:50:01.578Z,86.57
2022-08-31T00:51:01.572Z,86.67
2022-08-31T00:52:01.539Z,87.08
2022-08-31T00:53:01.532Z,87.18
2022-08-31T00:54:01.530Z,87.18
2022-08-31T00:55:01.528Z,86.77
2022-08-31T00:56:01.491Z,86.61
2022-08-31T00:57:01.492Z,86.82
2022-08-31T00:58:01.473Z,86.61
2022-08-31T00:59:01.471Z,86.82
2022-08-31T01:00:01.452Z,86.82
2022-08-31T01:01:01.507Z,87.12
2022-08-31T01:02:01.494Z,87.32
2022-08-31T01:03:01.422Z,87.42
2022-08-31T01:04:01.402Z,87.22
2022-08-31T01:05:01.404Z,87.32
2022-08-31T01:06:01.390Z,87.42
2022-08-31T01:07:01.390Z,87.22
2022-08-31T01:08:01.350Z,87.46
2022-08-31T01:09:01.342Z,87.56
2022-08-31T01:10:01.343Z,87.46
2022-08-31T01:11:01.347Z,87.56
2022-08-31T01:12:02.083Z,87.16
2022-08-31T01:13:01.303Z,87.56
2022-08-31T01:14:01.402Z,87.77
2022-08-31T01:15:01.274Z,87.46
2022-08-31T01:16:01.305Z,87.46
2022-08-31T01:17:01.434Z,87.77
2022-08-31T01:18:01.254Z,88.07
2022-08-31T01:19:01.247Z,88.37
2022-08-31T01:20:01.222Z,88.01
2022-08-31T01:21:01.242Z,87.81
2022-08-31T01:22:01.218Z,88.11
2022-08-31T01:23:01.196Z,88.01
2022-08-31T01:24:01.163Z,88.01
2022-08-31T01:25:01.188Z,88.11
2022-08-31T01:26:01.155Z,88.31
2022-08-31T01:27:01.175Z,88.42
2022-08-31T01:28:01.134Z,88.31
2022-08-31T01:29:01.126Z,88.01
2022-08-31T01:30:01.107Z,88.51
2022-08-31T01:31:01.109Z,88.31
2022-08-31T01:32:01.148Z,88.42
2022-08-31T01:33:01.131Z,88.42
2022-08-31T01:34:01.075Z,88.21
2022-08-31T01:35:01.092Z,88.11
2022-08-31T01:36:01.036Z,88.21
2022-08-31T01:37:01.041Z,88.35
2022-08-31T01:38:01.027Z,88.15
2022-08-31T01:39:00.999Z,88.15
2022-08-31T01:40:01.011Z,88.05
2022-08-31T01:41:00.987Z,88.25
2022-08-31T01:42:00.967Z,88.56
2022-08-31T01:43:00.987Z,88.86
2022-08-31T01:44:00.939Z,88.66
2022-08-31T01:45:00.939Z,88.35
2022-08-31T01:46:00.927Z,88.35
2022-08-31T01:47:01.043Z,88.25
2022-08-31T01:48:00.919Z,88.35
2022-08-31T01:49:00.888Z,87.95
2022-08-31T01:50:00.889Z,88.05
2022-08-31T01:51:00.887Z,87.95
2022-08-31T01:52:00.867Z,88.25
2022-08-31T01:53:00.852Z,88.25
2022-08-31T01:54:01.495Z,88.15
2022-08-31T01:55:00.820Z,88.35
2022-08-31T01:56:00.812Z,87.85
2022-08-31T01:57:00.799Z,87.74
2022-08-31T01:58:00.787Z,88.15
2022-08-31T01:59:02.958Z,88.20
2022-08-31T02:00:01.763Z,87.89
2022-08-31T02:01:00.804Z,88.20
2022-08-31T02:02:00.921Z,88.20
2022-08-31T02:03:00.924Z,87.99
2022-08-31T02:04:00.743Z,88.09
2022-08-31T02:05:00.711Z,88.09
2022-08-31T02:06:30.618Z,87.59
2022-08-31T02:07:32.295Z,87.59
2022-08-31T02:08:30.589Z,87.99
2022-08-31T02:09:30.603Z,88.29
2022-08-31T02:10:39.095Z,88.49
2022-08-31T02:11:30.556Z,88.70
2022-08-31T02:12:30.535Z,88.34
2022-08-31T02:13:30.539Z,88.13
2022-08-31T02:14:30.539Z,88.13
2022-08-31T02:15:30.530Z,88.23
2022-08-31T02:16:30.559Z,87.83
2022-08-31T02:17:30.494Z,87.83
2022-08-31T02:18:30.476Z,88.54
2022-08-31T02:19:30.476Z,88.13
2022-08-31T02:20:30.455Z,88.54
2022-08-31T02:21:30.448Z,88.54
2022-08-31T02:22:30.428Z,88.34
2022-08-31T02:23:30.440Z,87.63
2022-08-31T02:24:38.244Z,87.93
2022-08-31T02:25:30.417Z,88.23
2022-08-31T02:26:30.376Z,88.03
2022-08-31T02:27:30.376Z,87.83
2022-08-31T02:28:30.374Z,87.63
2022-08-31T02:29:30.356Z,88.03
2022-08-31T02:30:30.356Z,87.63
2022-08-31T02:31:30.385Z,87.73
2022-08-31T02:32:30.315Z,87.63
2022-08-31T02:33:30.332Z,87.43
2022-08-31T02:34:30.296Z,87.43
2022-08-31T02:35:30.307Z,87.02
2022-08-31T02:36:30.276Z,87.32
2022-08-31T02:37:30.280Z,87.02
2022-08-31T02:38:30.281Z,87.43
2022-08-31T02:39:30.278Z,87.22
2022-08-31T02:40:30.286Z,87.22
2022-08-31T02:41:30.228Z,87.32
2022-08-31T02:42:33.028Z,87.52
2022-08-31T02:43:31.201Z,87.46
2022-08-31T02:44:30.180Z,87.46
2022-08-31T02:45:30.188Z,86.96
2022-08-31T02:46:30.208Z,87.16
2022-08-31T02:47:30.160Z,87.26
2022-08-31T02:48:30.144Z,86.86
2022-08-31T02:49:30.149Z,86.86
2022-08-31T02:50:30.149Z,87.26
2022-08-31T02:51:30.117Z,86.55
2022-08-31T02:52:30.088Z,86.65
2022-08-31T02:53:30.103Z,87.06
2022-08-31T02:54:30.081Z,87.26
2022-08-31T02:55:30.069Z,86.96
2022-08-31T02:56:30.065Z,87.37
2022-08-31T02:57:30.048Z,87.37
2022-08-31T02:58:30.032Z,87.46
2022-08-31T02:59:30.028Z,87.57
2022-08-31T03:00:30.012Z,87.16
2022-08-31T03:01:30.047Z,86.96
2022-08-31T03:02:31.842Z,87.37
2022-08-31T03:03:29.994Z,87.26
2022-08-31T03:04:29.972Z,87.26
2022-08-31T03:05:29.961Z,87.06
2022-08-31T03:06:29.980Z,87.37
2022-08-31T03:07:29.933Z,87.16
2022-08-31T03:08:31.231Z,87.06
2022-08-31T03:09:29.921Z,86.76
2022-08-31T03:10:29.917Z,87.06
2022-08-31T03:11:29.970Z,87.37
2022-08-31T03:12:29.984Z,87.06
2022-08-31T03:13:30.003Z,87.26
2022-08-31T03:14:30.024Z,87.16
2022-08-31T03:15:30.093Z,87.10
2022-08-31T03:16:30.033Z,87.20
2022-08-31T03:17:30.105Z,87.10
2022-08-31T03:18:29.841Z,87.00
2022-08-31T03:19:29.837Z,87.40
2022-08-31T03:20:29.781Z,87.51
2022-08-31T03:21:29.790Z,87.71
2022-08-31T03:22:29.773Z,86.90
2022-08-31T03:23:29.765Z,87.20
2022-08-31T03:24:29.745Z,87.40
2022-08-31T03:25:29.741Z,87.40
2022-08-31T03:26:29.717Z,87.10
2022-08-31T03:27:29.717Z,87.30
2022-08-31T03:28:29.705Z,87.10
2022-08-31T03:29:29.698Z,87.30
2022-08-31T03:30:29.912Z,87.20
2022-08-31T03:31:29.699Z,87.10
2022-08-31T03:32:29.645Z,86.69
2022-08-31T03:33:29.653Z,87.20
2022-08-31T03:34:29.625Z,87.20
2022-08-31T03:35:29.614Z,87.30
2022-08-31T03:36:29.597Z,87.24
2022-08-31T03:37:29.606Z,87.65
2022-08-31T03:38:29.613Z,87.65
2022-08-31T03:39:29.585Z,87.55
2022-08-31T03:40:29.616Z,87.45
2022-08-31T03:41:29.557Z,87.24
2022-08-31T03:42:29.537Z,87.14
2022-08-31T03:43:29.537Z,87.55
2022-08-31T03:44:29.529Z,88.06
2022-08-31T03:45:29.517Z,88.46
2022-08-31T03:46:29.576Z,88.16
2022-08-31T03:47:29.490Z,88.16
2022-08-31T03:48:29.457Z,88.16
2022-08-31T03:49:29.505Z,87.99
2022-08-31T03:50:29.445Z,87.89
2022-08-31T03:51:29.446Z,87.99
2022-08-31T03:52:29.426Z,88.30
2022-08-31T03:53:29.433Z,88.30
2022-08-31T03:54:29.398Z,87.89
2022-08-31T03:55:29.418Z,87.79
2022-08-31T03:56:29.378Z,88.10
2022-08-31T03:57:29.381Z,87.89
2022-08-31T03:58:29.358Z,88.10
2022-08-31T03:59:29.378Z,88.24
2022-08-31T04:00:29.346Z,88.13
2022-08-31T04:01:29.366Z,88.24
2022-08-31T04:02:31.897Z,88.44
2022-08-31T04:03:29.328Z,88.24
2022-08-31T04:04:29.330Z,88.34
2022-08-31T04:05:29.271Z,88.75
2022-08-31T04:06:29.278Z,88.54
2022-08-31T04:07:29.294Z,88.95
2022-08-31T04:08:30.238Z,88.85
2022-08-31T04:09:29.250Z,88.85
2022-08-31T04:10:29.322Z,88.85
2022-08-31T04:11:44.370Z,88.95
2022-08-31T04:12:30.202Z,89.15
2022-08-31T04:13:30.340Z,88.75
2022-08-31T04:14:29.199Z,88.65
2022-08-31T04:15:29.372Z,88.95
2022-08-31T04:16:29.170Z,89.26
2022-08-31T04:17:29.638Z,88.65
2022-08-31T04:18:29.190Z,88.54
2022-08-31T04:19:31.413Z,88.44
2022-08-31T04:20:30.050Z,88.44
2022-08-31T04:21:29.198Z,88.54
2022-08-31T04:22:29.202Z,89.05
2022-08-31T04:23:29.294Z,88.65
2022-08-31T04:24:29.266Z,88.65
2022-08-31T04:25:29.253Z,88.65
2022-08-31T04:26:29.262Z,88.75
2022-08-31T04:27:29.322Z,88.65
2022-08-31T04:28:29.286Z,88.65
2022-08-31T04:29:29.208Z,88.44
2022-08-31T04:30:29.147Z,88.85
2022-08-31T04:31:29.378Z,88.65
2022-08-31T04:32:29.823Z,88.24
2022-08-31T04:33:29.106Z,88.54
2022-08-31T04:34:28.950Z,88.24
2022-08-31T04:35:28.950Z,88.30
2022-08-31T04:36:28.943Z,88.40
2022-08-31T04:37:28.930Z,88.20
2022-08-31T04:38:28.914Z,88.10
2022-08-31T04:39:32.331Z,87.89
2022-08-31T04:40:28.934Z,87.89
2022-08-31T04:41:28.922Z,87.93
2022-08-31T04:42:28.850Z,88.04
2022-08-31T04:43:28.862Z,88.13
2022-08-31T04:44:28.843Z,88.13
2022-08-31T04:45:28.892Z,88.24
2022-08-31T04:46:28.822Z,88.24
2022-08-31T04:47:28.837Z,88.24
2022-08-31T04:48:28.817Z,88.24
2022-08-31T04:49:28.795Z,88.34
2022-08-31T04:50:28.775Z,88.44
2022-08-31T04:51:28.775Z,88.65
2022-08-31T04:52:28.795Z,88.54
2022-08-31T04:53:28.746Z,88.75
2022-08-31T04:54:28.767Z,88.95
2022-08-31T04:55:28.715Z,88.65
2022-08-31T04:56:28.722Z,88.75
2022-08-31T04:57:28.730Z,88.54
2022-08-31T04:58:28.686Z,88.85
2022-08-31T04:59:28.683Z,88.65
2022-08-31T05:00:28.664Z,88.85
2022-08-31T05:01:28.706Z,88.75
2022-08-31T05:02:29.705Z,88.34
2022-08-31T05:03:28.643Z,88.85
2022-08-31T05:04:28.635Z,88.85
2022-08-31T05:05:28.615Z,88.71
2022-08-31T05:06:28.596Z,88.60
2022-08-31T05:07:28.622Z,88.40
2022-08-31T05:08:28.595Z,88.30
2022-08-31T05:09:28.607Z,88.40
2022-08-31T05:10:28.555Z,88.20
2022-08-31T05:11:28.547Z,88.20
2022-08-31T05:12:28.535Z,88.20
2022-08-31T05:13:28.535Z,88.10
2022-08-31T05:14:28.503Z,88.30
2022-08-31T05:15:28.519Z,88.30
2022-08-31T05:16:28.538Z,88.10
2022-08-31T05:17:28.507Z,88.40
2022-08-31T05:18:28.487Z,88.71
2022-08-31T05:19:28.455Z,88.71
2022-08-31T05:20:28.443Z,88.81
2022-08-31T05:21:28.476Z,88.10
2022-08-31T05:22:28.424Z,88.30
2022-08-31T05:23:28.435Z,88.40
2022-08-31T05:24:28.395Z,88.30
2022-08-31T05:25:28.399Z,88.20
2022-08-31T05:26:28.379Z,88.50
2022-08-31T05:27:28.378Z,88.30
2022-08-31T05:28:28.431Z,88.26
2022-08-31T05:29:28.359Z,88.36
2022-08-31T05:30:28.367Z,88.16
2022-08-31T05:31:28.387Z,88.16
2022-08-31T05:32:28.352Z,88.06
2022-08-31T05:33:28.307Z,88.16
2022-08-31T05:34:28.299Z,87.65
2022-08-31T05:35:28.288Z,87.45
2022-08-31T05:36:29.219Z,87.55
2022-08-31T05:37:28.247Z,87.85
2022-08-31T05:38:28.259Z,88.06
2022-08-31T05:39:28.248Z,87.85
2022-08-31T05:40:28.291Z,87.85
2022-08-31T05:41:28.207Z,87.95
2022-08-31T05:42:28.208Z,87.45
2022-08-31T05:43:28.205Z,87.40
2022-08-31T05:44:28.858Z,87.51
2022-08-31T05:45:28.183Z,87.92
2022-08-31T05:46:28.190Z,87.51
2022-08-31T05:47:28.139Z,87.40
2022-08-31T05:48:29.895Z,87.40
2022-08-31T05:49:28.292Z,87.30
2022-08-31T05:50:28.119Z,87.81
2022-08-31T05:51:28.091Z,87.81
2022-08-31T05:52:28.091Z,87.51
2022-08-31T05:53:28.088Z,87.40
2022-08-31T05:54:28.072Z,87.51
2022-08-31T05:55:28.050Z,87.92
2022-08-31T05:56:28.048Z,87.71
2022-08-31T05:57:28.020Z,87.71
2022-08-31T05:58:28.040Z,87.20
2022-08-31T05:59:28.015Z,87.30
2022-08-31T06:00:28.001Z,87.51
2022-08-31T06:01:28.062Z,87.30
2022-08-31T06:02:29.458Z,87.40
2022-08-31T06:03:27.953Z,87.61
2022-08-31T06:04:27.984Z,87.40
2022-08-31T06:05:28.014Z,86.69
2022-08-31T06:06:27.931Z,87.00
2022-08-31T06:07:27.925Z,86.59
2022-08-31T06:08:27.912Z,87.06
2022-08-31T06:09:27.977Z,86.90
2022-08-31T06:10:27.963Z,87.06
2022-08-31T06:11:27.872Z,86.76
2022-08-31T06:12:27.881Z,86.86
2022-08-31T06:13:27.844Z,87.06
2022-08-31T06:14:27.878Z,86.96
2022-08-31T06:15:27.824Z,86.76
2022-08-31T06:16:27.907Z,86.96
2022-08-31T06:17:27.805Z,87.06
2022-08-31T06:18:27.793Z,87.16
2022-08-31T06:19:27.788Z,87.46
2022-08-31T06:20:27.845Z,87.16
2022-08-31T06:21:27.754Z,86.96
2022-08-31T06:22:27.752Z,86.76
2022-08-31T06:23:27.752Z,86.76
2022-08-31T06:24:27.752Z,86.76
2022-08-31T06:25:27.737Z,87.16
2022-08-31T06:26:27.712Z,87.37
2022-08-31T06:27:27.700Z,87.37
2022-08-31T06:28:27.696Z,87.67
2022-08-31T06:29:27.681Z,87.46
2022-08-31T06:30:27.762Z,87.37
2022-08-31T06:31:27.667Z,87.37
2022-08-31T06:32:27.645Z,87.16
2022-08-31T06:33:27.625Z,87.26
2022-08-31T06:34:27.637Z,87.97
2022-08-31T06:35:27.612Z,87.97
2022-08-31T06:36:28.152Z,87.87
2022-08-31T06:37:27.578Z,87.63
2022-08-31T06:38:27.564Z,87.73
2022-08-31T06:39:27.556Z,87.12
2022-08-31T06:40:27.665Z,87.12
2022-08-31T06:41:27.528Z,87.43
2022-08-31T06:42:27.525Z,87.63
2022-08-31T06:43:27.505Z,87.93
2022-08-31T06:44:27.530Z,88.03
2022-08-31T06:45:27.496Z,88.13
2022-08-31T06:46:27.517Z,88.13
2022-08-31T06:47:27.464Z,88.03
2022-08-31T06:48:27.457Z,88.40
2022-08-31T06:49:27.448Z,87.93
2022-08-31T06:50:27.450Z,87.89
2022-08-31T06:51:27.408Z,87.79
2022-08-31T06:52:27.419Z,87.79
2022-08-31T06:53:27.398Z,87.89
2022-08-31T06:54:30.192Z,87.79
2022-08-31T06:55:27.389Z,87.48
2022-08-31T06:56:27.368Z,87.38
2022-08-31T06:57:27.345Z,87.38
2022-08-31T06:58:27.345Z,87.04
2022-08-31T06:59:29.352Z,87.74
2022-08-31T07:00:27.329Z,88.05
2022-08-31T07:01:32.631Z,87.45
2022-08-31T07:02:28.327Z,87.24
2022-08-31T07:03:27.277Z,87.45
2022-08-31T07:04:27.269Z,87.95
2022-08-31T07:05:27.257Z,87.40
2022-08-31T07:06:27.269Z,87.40
2022-08-31T07:07:27.241Z,87.51
2022-08-31T07:08:27.230Z,87.30
2022-08-31T07:09:27.209Z,87.51
2022-08-31T07:10:27.213Z,88.07
2022-08-31T07:11:27.201Z,88.07
2022-08-31T07:12:27.196Z,87.97
2022-08-31T07:13:27.169Z,88.07
2022-08-31T07:14:27.169Z,87.52
2022-08-31T07:15:27.132Z,86.31
2022-08-31T07:16:27.270Z,86.21
2022-08-31T07:17:27.124Z,86.21
2022-08-31T07:18:27.139Z,85.56
2022-08-31T07:19:27.093Z,85.66
2022-08-31T07:20:27.095Z,84.65
2022-08-31T07:21:27.109Z,84.91
2022-08-31T07:22:27.070Z,84.61
2022-08-31T07:23:27.053Z,84.71
2022-08-31T07:24:27.041Z,84.91
2022-08-31T07:25:27.022Z,84.17
2022-08-31T07:26:27.053Z,83.66
2022-08-31T07:27:27.001Z,83.26
2022-08-31T07:28:27.002Z,83.36
2022-08-31T07:29:26.981Z,83.82
2022-08-31T07:30:29.059Z,83.62
2022-08-31T07:31:28.012Z,83.82
2022-08-31T07:32:26.961Z,83.48
2022-08-31T07:33:26.933Z,83.78
2022-08-31T07:34:26.942Z,83.48
2022-08-31T07:35:26.913Z,82.93
2022-08-31T07:36:26.924Z,83.04
2022-08-31T07:37:26.893Z,82.93
2022-08-31T07:38:26.894Z,82.84
2022-08-31T07:39:26.873Z,82.19
2022-08-31T07:40:26.881Z,81.48
2022-08-31T07:41:26.885Z,82.09
2022-08-31T07:42:26.846Z,81.89
2022-08-31T07:43:26.826Z,82.09
2022-08-31T07:44:26.822Z,82.45
2022-08-31T07:45:30.232Z,81.75
2022-08-31T07:46:27.868Z,82.05
2022-08-31T07:47:26.793Z,81.85
2022-08-31T07:48:26.805Z,82.05
2022-08-31T07:49:26.797Z,81.35
2022-08-31T07:50:26.876Z,82.21
2022-08-31T07:51:26.866Z,81.51
2022-08-31T07:52:26.885Z,80.80
2022-08-31T07:53:26.886Z,80.80
2022-08-31T07:54:26.954Z,81.01
2022-08-31T07:55:26.937Z,81.41
2022-08-31T07:56:26.979Z,80.97
2022-08-31T07:57:26.686Z,80.36
2022-08-31T07:58:26.678Z,80.57
2022-08-31T07:59:26.658Z,79.76
2022-08-31T08:00:26.649Z,78.85
2022-08-31T08:01:26.659Z,79.56
2022-08-31T08:02:26.769Z,80.06
2022-08-31T08:03:26.618Z,80.36
2022-08-31T08:04:26.597Z,80.46
2022-08-31T08:05:27.605Z,79.96
2022-08-31T08:06:26.577Z,79.16
2022-08-31T08:07:27.557Z,79.96
2022-08-31T08:08:26.570Z,80.16
2022-08-31T08:09:26.547Z,80.57
2022-08-31T08:10:26.535Z,81.10
2022-08-31T08:11:26.510Z,80.10
2022-08-31T08:12:26.509Z,81.01
2022-08-31T08:13:26.501Z,80.70
2022-08-31T08:14:26.498Z,81.10
2022-08-31T08:15:26.478Z,81.41
2022-08-31T08:16:26.500Z,80.70
2022-08-31T08:17:26.438Z,80.80
2022-08-31T08:18:26.441Z,81.41
2022-08-31T08:19:26.432Z,81.81
2022-08-31T08:20:36.263Z,81.87
2022-08-31T08:21:27.690Z,81.67
2022-08-31T08:22:50.663Z,80.87
2022-08-31T08:23:28.577Z,80.77
2022-08-31T08:24:26.382Z,80.77
2022-08-31T08:25:26.437Z,81.27
2022-08-31T08:26:26.487Z,80.66
2022-08-31T08:27:26.450Z,80.26
2022-08-31T08:28:39.136Z,80.36
2022-08-31T08:29:27.303Z,80.66
2022-08-31T08:30:26.462Z,81.33
2022-08-31T08:31:26.478Z,80.43
2022-08-31T08:32:26.403Z,80.22
2022-08-31T08:33:26.435Z,80.12
2022-08-31T08:34:27.101Z,80.58
2022-08-31T08:35:27.278Z,80.19
2022-08-31T08:36:26.504Z,80.65
2022-08-31T08:37:41.357Z,78.74
2022-08-31T08:39:21.610Z,77.90
2022-08-31T08:40:21.697Z,77.90
2022-08-31T08:41:24.294Z,77.39
2022-08-31T08:42:21.589Z,77.20
2022-08-31T08:43:21.567Z,77.26
2022-08-31T08:44:21.574Z,77.56
2022-08-31T08:45:21.547Z,77.86
2022-08-31T08:46:34.423Z,76.76
2022-08-31T08:47:23.933Z,77.22
2022-08-31T08:48:21.502Z,76.92
2022-08-31T08:49:21.507Z,76.38
2022-08-31T08:50:21.502Z,76.18
2022-08-31T08:51:21.479Z,76.68
2022-08-31T08:52:21.458Z,76.04
2022-08-31T08:53:21.456Z,75.54
2022-08-31T08:54:21.434Z,74.84
2022-08-31T08:55:21.459Z,75.14
2022-08-31T08:56:32.847Z,75.54
2022-08-31T08:57:22.427Z,75.74
2022-08-31T08:58:21.392Z,75.45
2022-08-31T08:59:21.407Z,75.01
2022-08-31T09:00:21.389Z,75.21
2022-08-31T09:01:21.402Z,75.10
2022-08-31T09:02:21.381Z,74.94
2022-08-31T09:03:21.350Z,75.10
2022-08-31T09:04:21.331Z,74.90
2022-08-31T09:05:21.329Z,75.21
2022-08-31T09:06:21.319Z,75.01
2022-08-31T09:07:21.317Z,75.51
2022-08-31T09:08:21.284Z,75.41
2022-08-31T09:09:21.285Z,74.90
2022-08-31T09:10:21.263Z,74.71
2022-08-31T09:11:21.371Z,74.30
2022-08-31T09:12:21.251Z,74.77
2022-08-31T09:13:21.375Z,74.57
2022-08-31T09:14:21.220Z,74.27
2022-08-31T09:15:21.213Z,74.27
2022-08-31T09:16:21.272Z,74.37
2022-08-31T09:17:21.217Z,74.27
2022-08-31T09:18:21.171Z,74.37
2022-08-31T09:19:21.199Z,73.97
2022-08-31T09:20:21.305Z,74.57
2022-08-31T09:21:21.235Z,73.86
2022-08-31T09:22:21.163Z,74.57
2022-08-31T09:23:21.209Z,74.27
2022-08-31T09:24:21.295Z,74.23
2022-08-31T09:25:21.316Z,73.63
2022-08-31T09:26:21.275Z,73.53
2022-08-31T09:27:21.230Z,73.43
2022-08-31T09:28:21.188Z,72.93
2022-08-31T09:29:21.276Z,73.53
2022-08-31T09:30:21.247Z,73.43
2022-08-31T09:31:21.289Z,73.23
2022-08-31T09:32:21.243Z,72.83
2022-08-31T09:33:21.255Z,73.63
2022-08-31T09:34:21.280Z,73.33
2022-08-31T09:35:21.248Z,74.03
2022-08-31T09:36:21.011Z,73.33
2022-08-31T09:37:20.968Z,72.33
2022-08-31T09:38:20.948Z,72.19
2022-08-31T09:39:20.955Z,72.50
2022-08-31T09:40:23.734Z,73.60
2022-08-31T09:41:20.936Z,72.89
2022-08-31T09:42:20.940Z,71.86
2022-08-31T09:43:21.065Z,71.56
2022-08-31T09:44:20.899Z,72.06
2022-08-31T09:45:20.884Z,70.56
2022-08-31T09:46:20.911Z,70.66
2022-08-31T09:47:20.894Z,71.42
2022-08-31T09:48:20.849Z,71.73
2022-08-31T09:49:20.842Z,71.53
2022-08-31T09:51:11.764Z,68.93
2022-08-31T09:52:13.516Z,70.43
2022-08-31T09:53:11.800Z,70.89
2022-08-31T09:54:11.751Z,69.19
2022-08-31T09:55:11.710Z,70.09
2022-08-31T09:56:11.708Z,69.59
2022-08-31T09:57:11.696Z,69.66
2022-08-31T09:58:11.698Z,69.36
2022-08-31T09:59:11.671Z,68.96
2022-08-31T10:00:11.657Z,68.73
2022-08-31T10:01:11.699Z,69.93
2022-08-31T10:02:11.668Z,68.79
2022-08-31T10:03:11.620Z,68.40
2022-08-31T10:04:11.621Z,68.10
2022-08-31T10:05:11.728Z,67.40
2022-08-31T10:06:11.588Z,67.66
2022-08-31T10:07:11.569Z,67.66
2022-08-31T10:08:11.589Z,67.07
2022-08-31T10:09:11.560Z,66.47
2022-08-31T10:10:28.122Z,66.27
2022-08-31T10:11:12.536Z,66.56
2022-08-31T10:12:11.528Z,66.77
2022-08-31T10:13:11.561Z,66.66
2022-08-31T10:14:11.522Z,67.13
2022-08-31T10:15:15.375Z,65.14
2022-08-31T10:16:11.582Z,66.24
2022-08-31T10:17:11.572Z,66.33
2022-08-31T10:18:11.485Z,66.93
2022-08-31T10:19:11.441Z,66.24
2022-08-31T10:20:11.446Z,65.53
2022-08-31T10:21:11.420Z,65.83
2022-08-31T10:22:11.434Z,65.64
2022-08-31T10:23:11.465Z,65.94
2022-08-31T10:24:11.427Z,66.93
2022-08-31T10:25:11.373Z,66.73
2022-08-31T10:26:11.385Z,66.63
2022-08-31T10:27:11.353Z,66.90
2022-08-31T10:28:11.374Z,67.00
2022-08-31T10:29:11.335Z,66.47
2022-08-31T10:30:11.346Z,64.58
2022-08-31T10:31:11.367Z,64.04
2022-08-31T10:32:11.305Z,65.24
2022-08-31T10:33:11.314Z,64.42
2022-08-31T10:34:11.277Z,63.22
2022-08-31T10:35:11.298Z,64.01
2022-08-31T10:36:11.260Z,63.02
2022-08-31T10:37:11.597Z,63.82
2022-08-31T10:38:11.246Z,63.82
2022-08-31T10:39:11.226Z,63.55
2022-08-31T10:40:11.273Z,64.15
2022-08-31T10:41:11.217Z,63.72
2022-08-31T10:42:11.198Z,63.82
2022-08-31T10:43:11.291Z,63.32
2022-08-31T10:44:11.169Z,63.29
2022-08-31T10:45:14.199Z,61.30
2022-08-31T10:46:12.208Z,61.40
2022-08-31T10:47:14.191Z,62.13
2022-08-31T10:48:12.129Z,61.83
2022-08-31T10:49:11.149Z,62.23
2022-08-31T10:50:11.109Z,62.72
2022-08-31T10:51:14.126Z,62.52
2022-08-31T10:52:11.091Z,62.95
2022-08-31T10:53:11.085Z,62.75
2022-08-31T10:54:11.062Z,62.55
2022-08-31T10:55:11.058Z,62.05
2022-08-31T10:56:11.042Z,63.55
2022-08-31T10:57:11.122Z,61.66
2022-08-31T10:58:12.021Z,63.85
2022-08-31T10:59:10.994Z,63.22
2022-08-31T11:00:11.096Z,61.83
2022-08-31T11:01:11.029Z,61.23
2022-08-31T11:02:10.981Z,61.53
2022-08-31T11:03:10.988Z,61.72
2022-08-31T11:04:11.025Z,61.43
2022-08-31T11:05:10.941Z,61.30
2022-08-31T11:06:10.934Z,61.10
2022-08-31T11:07:10.933Z,60.68
2022-08-31T11:08:10.906Z,60.68
2022-08-31T11:09:13.028Z,61.17
2022-08-31T11:10:10.935Z,60.27
2022-08-31T11:11:10.866Z,59.75
2022-08-31T11:12:10.878Z,59.45
2022-08-31T11:13:10.858Z,58.95
2022-08-31T11:14:10.846Z,59.25
2022-08-31T11:15:10.826Z,59.05
2022-08-31T11:16:10.897Z,58.95
2022-08-31T11:17:11.997Z,58.75
2022-08-31T11:18:10.798Z,58.88
2022-08-31T11:19:10.790Z,58.09
2022-08-31T11:20:10.779Z,59.48
2022-08-31T11:21:10.767Z,59.35
2022-08-31T11:22:10.750Z,59.12
2022-08-31T11:23:10.745Z,58.73
2022-08-31T11:24:10.730Z,58.33
2022-08-31T11:25:10.710Z,59.00
2022-08-31T11:26:10.718Z,59.00
2022-08-31T11:27:10.690Z,58.17
2022-08-31T11:28:10.712Z,58.17
2022-08-31T11:29:10.670Z,56.98
2022-08-31T11:30:10.664Z,57.95
2022-08-31T11:31:10.725Z,56.59
2022-08-31T11:32:10.646Z,56.88
2022-08-31T11:33:10.630Z,57.87
2022-08-31T11:34:17.858Z,56.38
2022-08-31T11:35:11.610Z,57.70
2022-08-31T11:36:10.602Z,58.30
2022-08-31T11:37:10.602Z,58.60
2022-08-31T11:38:10.593Z,58.10
2022-08-31T11:39:10.562Z,57.04
2022-08-31T11:40:10.630Z,58.03
2022-08-31T11:41:10.542Z,58.83
2022-08-31T11:42:10.538Z,57.64
2022-08-31T11:43:10.618Z,58.83
2022-08-31T11:44:10.514Z,58.33
2022-08-31T11:45:14.046Z,58.23
2022-08-31T11:46:10.746Z,58.20
2022-08-31T11:47:10.466Z,57.21
2022-08-31T11:48:10.475Z,57.81
2022-08-31T11:49:10.459Z,59.00
2022-08-31T11:50:10.438Z,56.91
2022-08-31T11:51:10.423Z,56.71
2022-08-31T11:52:10.426Z,56.94
2022-08-31T11:53:10.428Z,57.36
2022-08-31T11:54:10.411Z,57.09
2022-08-31T11:55:10.392Z,60.68
2022-08-31T11:56:10.379Z,60.60
2022-08-31T11:57:10.359Z,60.50
2022-08-31T11:58:10.367Z,61.20
2022-08-31T11:59:10.355Z,60.30
2022-08-31T12:00:10.340Z,60.08
2022-08-31T12:01:10.322Z,59.88
2022-08-31T12:02:10.320Z,59.45
2022-08-31T12:03:10.286Z,59.32
2022-08-31T12:04:10.290Z,59.42
2022-08-31T12:05:10.347Z,57.81
2022-08-31T12:06:10.270Z,57.41
2022-08-31T12:07:10.239Z,57.98
2022-08-31T12:08:10.239Z,56.71
2022-08-31T12:09:10.231Z,58.17
2022-08-31T12:10:10.235Z,56.38
2022-08-31T12:11:10.199Z,56.46
2022-08-31T12:12:10.202Z,55.96
2022-08-31T12:13:10.183Z,55.04
2022-08-31T12:14:10.171Z,55.24
2022-08-31T12:15:10.170Z,55.04
2022-08-31T12:16:10.333Z,55.94
2022-08-31T12:17:10.142Z,53.85
2022-08-31T12:18:10.143Z,53.58
2022-08-31T12:19:10.110Z,53.98
2022-08-31T12:20:10.109Z,55.57
2022-08-31T12:21:10.102Z,54.57
2022-08-31T12:22:10.094Z,55.27
2022-08-31T12:23:10.063Z,54.68
2022-08-31T12:24:10.074Z,55.07
2022-08-31T12:25:11.042Z,55.47
2022-08-31T12:26:10.794Z,54.38
2022-08-31T12:27:10.066Z,54.87
2022-08-31T12:28:10.038Z,54.35
2022-08-31T12:29:10.094Z,53.96
2022-08-31T12:30:10.003Z,54.92
2022-08-31T12:31:10.053Z,55.02
2022-08-31T12:32:11.170Z,54.32
2022-08-31T12:33:09.957Z,52.84
2022-08-31T12:34:09.970Z,53.53
2022-08-31T12:35:09.947Z,52.73
2022-08-31T12:36:09.959Z,54.32
2022-08-31T12:37:09.907Z,55.39
2022-08-31T12:38:10.199Z,54.39
2022-08-31T12:39:09.907Z,53.78
2022-08-31T12:40:09.922Z,52.26
2022-08-31T12:41:09.891Z,52.86
2022-08-31T12:42:09.879Z,52.64
2022-08-31T12:43:09.859Z,52.44
2022-08-31T12:44:13.926Z,50.48
2022-08-31T12:45:09.842Z,50.98
2022-08-31T12:46:10.289Z,51.87
2022-08-31T12:47:09.820Z,53.53
2022-08-31T12:48:09.812Z,53.03
2022-08-31T12:49:09.822Z,50.38
2022-08-31T12:50:09.791Z,50.38
2022-08-31T12:51:09.792Z,53.58
2022-08-31T12:52:09.779Z,51.60
2022-08-31T12:53:09.752Z,54.17
2022-08-31T12:54:09.744Z,53.28